Weather at Benbecula Airport

Public forecast

Using degrees Celsius for public forecast. Weather courtesy of forecast.io.

Current aviation weather report (METAR) for Benbecula Airport

2024/05/30 03:50 (retrieved 25 minutes ago)

EGPL 300350Z AUTO 35016KT 9999 FEW003/// BKN018/// 11/10 Q1013

Closest aviation forecast (TAF) to Benbecula Airport

Forecast is more than 6 hours old.

Closest forecast is RAF Waddington, 348.5 nm (645.4 km) SE.

2024/05/29 18:18 (retrieved 10 hours ago)

TAF TAF EGXW 291703Z 2918/3012 CNL